Tulsa, Oklahoma
Current Conditions -  °F | °C
As of 8:53 AM on Tuesday 21 Oct 2014 (Local Time) from KTUL Reporting Station
Haze Haze  
Wind Chill: 16°   Ceiling: 4700
Heat Index: 16°   Visibility: 2.5mi
Dew Point: 15°   Wind: 3mph
Humidity: 96%   Direction: 100°E
Pressure: 30.1"   Gusts: NA
Location:  36.15°N, 95.99°W
Report Text: KTUL 211353Z 10003KT 2 1/2SM BR SCT039 BKN047 16/15 A3010 RMK AO2 SLP190 T01560150
Loading
Personal Weather Stations






























Interactive Weather Map New forecast layout! Learn more

10-Day Weather Forecast

Advertisements
Track Severe Weather on mobile